sensor_id;sensor_type;location;lat;lon;timestamp;pressure;altitude;pressure_sealevel;temperature;humidity
9889;BME280;4983;42.112;24.738;2024-02-26T00:02:15;99371.41;;;10.52;76.88
9889;BME280;4983;42.112;24.738;2024-02-26T00:04:40;99373.16;;;10.60;76.50
9889;BME280;4983;42.112;24.738;2024-02-26T00:07:06;99368.63;;;10.68;76.49
9889;BME280;4983;42.112;24.738;2024-02-26T00:09:32;99370.63;;;10.66;76.01
9889;BME280;4983;42.112;24.738;2024-02-26T00:12:01;99371.28;;;10.68;77.00
9889;BME280;4983;42.112;24.738;2024-02-26T00:14:26;99375.28;;;10.64;76.16
9889;BME280;4983;42.112;24.738;2024-02-26T00:16:51;99363.63;;;10.59;76.35
9889;BME280;4983;42.112;24.738;2024-02-26T00:19:17;99360.63;;;10.62;75.87
9889;BME280;4983;42.112;24.738;2024-02-26T00:21:42;99367.06;;;10.59;75.84
9889;BME280;4983;42.112;24.738;2024-02-26T00:24:08;99369.00;;;10.51;77.18
9889;BME280;4983;42.112;24.738;2024-02-26T00:26:34;99365.97;;;10.54;76.55
9889;BME280;4983;42.112;24.738;2024-02-26T00:28:59;99370.13;;;10.48;75.48
9889;BME280;4983;42.112;24.738;2024-02-26T00:31:25;99361.34;;;10.56;76.09
9889;BME280;4983;42.112;24.738;2024-02-26T00:33:50;99370.25;;;10.55;75.90
9889;BME280;4983;42.112;24.738;2024-02-26T00:36:15;99385.94;;;10.56;75.23
9889;BME280;4983;42.112;24.738;2024-02-26T00:38:41;99383.06;;;10.43;76.12
9889;BME280;4983;42.112;24.738;2024-02-26T00:41:08;99369.06;;;10.20;77.79
9889;BME280;4983;42.112;24.738;2024-02-26T00:43:33;99358.25;;;10.15;78.07
9889;BME280;4983;42.112;24.738;2024-02-26T00:45:59;99358.44;;;10.14;78.48
9889;BME280;4983;42.112;24.738;2024-02-26T00:48:24;99363.88;;;10.12;77.63
9889;BME280;4983;42.112;24.738;2024-02-26T00:50:51;99354.97;;;10.13;78.86
9889;BME280;4983;42.112;24.738;2024-02-26T00:53:17;99323.69;;;10.02;78.94
9889;BME280;4983;42.112;24.738;2024-02-26T00:55:42;99299.13;;;9.87;79.74
9889;BME280;4983;42.112;24.738;2024-02-26T00:58:08;99306.78;;;9.97;79.95
9889;BME280;4983;42.112;24.738;2024-02-26T01:00:34;99301.06;;;9.93;80.35
9889;BME280;4983;42.112;24.738;2024-02-26T01:02:59;99294.16;;;9.92;80.48
9889;BME280;4983;42.112;24.738;2024-02-26T01:05:25;99297.75;;;9.91;80.53
9889;BME280;4983;42.112;24.738;2024-02-26T01:07:50;99316.97;;;10.00;79.53
9889;BME280;4983;42.112;24.738;2024-02-26T01:10:16;99314.59;;;9.90;79.45
9889;BME280;4983;42.112;24.738;2024-02-26T01:12:41;99305.97;;;9.96;80.45
9889;BME280;4983;42.112;24.738;2024-02-26T01:15:07;99318.03;;;10.13;80.28
9889;BME280;4983;42.112;24.738;2024-02-26T01:17:33;99325.41;;;10.18;79.48
9889;BME280;4983;42.112;24.738;2024-02-26T01:19:58;99324.88;;;10.22;80.09
9889;BME280;4983;42.112;24.738;2024-02-26T01:22:24;99303.13;;;10.20;78.76
9889;BME280;4983;42.112;24.738;2024-02-26T01:24:49;99305.22;;;10.25;78.36
9889;BME280;4983;42.112;24.738;2024-02-26T01:27:15;99329.44;;;10.28;78.53
9889;BME280;4983;42.112;24.738;2024-02-26T01:29:41;99339.25;;;10.34;78.99
9889;BME280;4983;42.112;24.738;2024-02-26T01:32:06;99328.88;;;10.33;78.15
9889;BME280;4983;42.112;24.738;2024-02-26T01:34:32;99317.25;;;10.27;78.61
9889;BME280;4983;42.112;24.738;2024-02-26T01:36:58;99319.63;;;10.37;79.41
9889;BME280;4983;42.112;24.738;2024-02-26T01:39:23;99311.25;;;10.33;77.77
9889;BME280;4983;42.112;24.738;2024-02-26T01:41:49;99323.72;;;10.39;79.19
9889;BME280;4983;42.112;24.738;2024-02-26T01:44:14;99328.28;;;10.45;78.69
9889;BME280;4983;42.112;24.738;2024-02-26T01:46:40;99326.00;;;10.42;77.32
9889;BME280;4983;42.112;24.738;2024-02-26T01:49:06;99323.72;;;10.54;77.84
9889;BME280;4983;42.112;24.738;2024-02-26T01:51:35;99329.84;;;10.54;76.52
9889;BME280;4983;42.112;24.738;2024-02-26T01:54:02;99302.16;;;10.36;78.08
9889;BME280;4983;42.112;24.738;2024-02-26T01:56:28;99317.53;;;10.47;77.03
9889;BME280;4983;42.112;24.738;2024-02-26T01:58:57;99320.66;;;10.50;76.89
9889;BME280;4983;42.112;24.738;2024-02-26T02:01:25;99320.84;;;10.63;77.53
9889;BME280;4983;42.112;24.738;2024-02-26T02:03:53;99315.91;;;10.60;76.51
9889;BME280;4983;42.112;24.738;2024-02-26T02:06:20;99313.00;;;10.55;76.91
9889;BME280;4983;42.112;24.738;2024-02-26T02:08:46;99310.53;;;10.54;76.90
9889;BME280;4983;42.112;24.738;2024-02-26T02:11:12;99302.06;;;10.58;76.37
9889;BME280;4983;42.112;24.738;2024-02-26T02:13:37;99307.91;;;10.68;76.53
9889;BME280;4983;42.112;24.738;2024-02-26T02:16:04;99302.16;;;10.65;76.17
9889;BME280;4983;42.112;24.738;2024-02-26T02:18:29;99308.56;;;10.70;76.74
9889;BME280;4983;42.112;24.738;2024-02-26T02:20:55;99301.00;;;10.67;75.75
9889;BME280;4983;42.112;24.738;2024-02-26T02:23:22;99313.63;;;10.72;75.91
9889;BME280;4983;42.112;24.738;2024-02-26T02:25:47;99320.44;;;10.66;75.79
9889;BME280;4983;42.112;24.738;2024-02-26T02:28:13;99308.25;;;10.65;75.72
9889;BME280;4983;42.112;24.738;2024-02-26T02:30:39;99312.00;;;10.71;75.04
9889;BME280;4983;42.112;24.738;2024-02-26T02:33:05;99315.28;;;10.73;74.53
9889;BME280;4983;42.112;24.738;2024-02-26T02:35:31;99323.28;;;10.79;75.50
9889;BME280;4983;42.112;24.738;2024-02-26T02:37:57;99317.63;;;10.82;75.17
9889;BME280;4983;42.112;24.738;2024-02-26T02:40:23;99322.00;;;10.75;75.12
9889;BME280;4983;42.112;24.738;2024-02-26T02:42:48;99319.72;;;10.72;74.40
9889;BME280;4983;42.112;24.738;2024-02-26T02:45:14;99319.13;;;10.70;74.69
9889;BME280;4983;42.112;24.738;2024-02-26T02:47:39;99321.75;;;10.70;73.86
9889;BME280;4983;42.112;24.738;2024-02-26T02:50:05;99321.75;;;10.70;73.88
9889;BME280;4983;42.112;24.738;2024-02-26T02:52:31;99326.75;;;10.65;75.07
9889;BME280;4983;42.112;24.738;2024-02-26T02:54:56;99316.47;;;10.56;74.55
9889;BME280;4983;42.112;24.738;2024-02-26T02:57:22;99318.91;;;10.43;75.25
9889;BME280;4983;42.112;24.738;2024-02-26T02:59:47;99320.09;;;10.40;74.70
9889;BME280;4983;42.112;24.738;2024-02-26T03:02:13;99323.06;;;10.37;74.88
9889;BME280;4983;42.112;24.738;2024-02-26T03:04:38;99327.38;;;10.38;75.74
9889;BME280;4983;42.112;24.738;2024-02-26T03:07:04;99328.00;;;10.40;74.13
9889;BME280;4983;42.112;24.738;2024-02-26T03:09:29;99328.00;;;10.26;76.02
9889;BME280;4983;42.112;24.738;2024-02-26T03:11:54;99324.44;;;10.19;76.25
9889;BME280;4983;42.112;24.738;2024-02-26T03:14:20;99335.50;;;10.14;76.00
9889;BME280;4983;42.112;24.738;2024-02-26T03:16:46;99334.59;;;10.07;75.14
9889;BME280;4983;42.112;24.738;2024-02-26T03:19:14;99347.44;;;10.02;76.16
9889;BME280;4983;42.112;24.738;2024-02-26T03:21:41;99330.69;;;9.95;75.86
9889;BME280;4983;42.112;24.738;2024-02-26T03:24:06;99341.53;;;10.00;76.62
9889;BME280;4983;42.112;24.738;2024-02-26T03:26:34;99330.88;;;9.94;76.71
9889;BME280;4983;42.112;24.738;2024-02-26T03:28:59;99330.34;;;9.98;76.10
9889;BME280;4983;42.112;24.738;2024-02-26T03:31:25;99322.41;;;9.98;75.38
9889;BME280;4983;42.112;24.738;2024-02-26T03:33:51;99339.06;;;9.99;76.34
9889;BME280;4983;42.112;24.738;2024-02-26T03:36:16;99336.69;;;9.89;75.77
9889;BME280;4983;42.112;24.738;2024-02-26T03:38:42;99345.13;;;9.85;75.94
9889;BME280;4983;42.112;24.738;2024-02-26T03:41:07;99340.03;;;9.83;76.95
9889;BME280;4983;42.112;24.738;2024-02-26T03:43:33;99326.00;;;9.83;76.20
9889;BME280;4983;42.112;24.738;2024-02-26T03:45:59;99331.94;;;9.85;75.85
9889;BME280;4983;42.112;24.738;2024-02-26T03:48:25;99343.66;;;9.82;75.55
9889;BME280;4983;42.112;24.738;2024-02-26T03:50:51;99333.22;;;9.66;76.64
9889;BME280;4983;42.112;24.738;2024-02-26T03:53:16;99338.78;;;9.49;77.38
9889;BME280;4983;42.112;24.738;2024-02-26T03:55:41;99326.97;;;9.45;77.79
9889;BME280;4983;42.112;24.738;2024-02-26T03:58:07;99332.34;;;9.51;77.62
9889;BME280;4983;42.112;24.738;2024-02-26T04:00:33;99339.91;;;9.54;78.13
9889;BME280;4983;42.112;24.738;2024-02-26T04:02:59;99351.44;;;9.53;77.30
9889;BME280;4983;42.112;24.738;2024-02-26T04:05:25;99344.50;;;9.52;77.05
9889;BME280;4983;42.112;24.738;2024-02-26T04:07:50;99347.81;;;9.54;76.91
9889;BME280;4983;42.112;24.738;2024-02-26T04:10:16;99341.97;;;9.67;77.13
9889;BME280;4983;42.112;24.738;2024-02-26T04:12:42;99349.34;;;9.71;77.44
9889;BME280;4983;42.112;24.738;2024-02-26T04:15:09;99342.84;;;9.82;77.09
9889;BME280;4983;42.112;24.738;2024-02-26T04:17:35;99345.78;;;9.87;75.62
9889;BME280;4983;42.112;24.738;2024-02-26T04:20:01;99341.63;;;9.92;76.53
9889;BME280;4983;42.112;24.738;2024-02-26T04:22:26;99344.69;;;9.96;76.17
9889;BME280;4983;42.112;24.738;2024-02-26T04:24:52;99343.31;;;9.85;75.90
9889;BME280;4983;42.112;24.738;2024-02-26T04:27:17;99346.28;;;9.82;75.84
9889;BME280;4983;42.112;24.738;2024-02-26T04:29:43;99339.66;;;9.86;75.37
9889;BME280;4983;42.112;24.738;2024-02-26T04:32:08;99333.88;;;9.91;76.20
9889;BME280;4983;42.112;24.738;2024-02-26T04:34:34;99344.69;;;9.96;75.46
9889;BME280;4983;42.112;24.738;2024-02-26T04:36:59;99345.97;;;10.00;75.65
9889;BME280;4983;42.112;24.738;2024-02-26T04:39:25;99343.41;;;9.92;76.60
9889;BME280;4983;42.112;24.738;2024-02-26T04:41:51;99348.69;;;9.92;75.52
9889;BME280;4983;42.112;24.738;2024-02-26T04:44:16;99350.50;;;9.91;76.37
9889;BME280;4983;42.112;24.738;2024-02-26T04:46:42;99346.34;;;9.97;75.93
9889;BME280;4983;42.112;24.738;2024-02-26T04:49:07;99340.44;;;9.95;75.28
9889;BME280;4983;42.112;24.738;2024-02-26T04:51:33;99333.75;;;9.84;75.21
9889;BME280;4983;42.112;24.738;2024-02-26T04:53:58;99345.53;;;9.96;75.69
9889;BME280;4983;42.112;24.738;2024-02-26T04:56:25;99324.31;;;9.90;75.88
9889;BME280;4983;42.112;24.738;2024-02-26T04:58:51;99356.13;;;9.88;77.04
9889;BME280;4983;42.112;24.738;2024-02-26T05:01:16;99354.63;;;9.94;76.77
9889;BME280;4983;42.112;24.738;2024-02-26T05:03:42;99352.25;;;9.99;76.06
9889;BME280;4983;42.112;24.738;2024-02-26T05:06:08;99361.28;;;10.04;76.12
9889;BME280;4983;42.112;24.738;2024-02-26T05:08:34;99354.84;;;10.07;75.14
9889;BME280;4983;42.112;24.738;2024-02-26T05:11:01;99344.31;;;10.07;75.35
9889;BME280;4983;42.112;24.738;2024-02-26T05:13:28;99361.75;;;10.08;75.40
9889;BME280;4983;42.112;24.738;2024-02-26T05:15:54;99356.28;;;10.17;80.16
9889;BME280;4983;42.112;24.738;2024-02-26T05:18:19;99346.41;;;10.63;85.05
9889;BME280;4983;42.112;24.738;2024-02-26T05:20:44;99338.13;;;10.95;82.31
9889;BME280;4983;42.112;24.738;2024-02-26T05:23:10;99346.47;;;11.48;78.77
9889;BME280;4983;42.112;24.738;2024-02-26T05:25:36;99336.91;;;11.47;73.19
9889;BME280;4983;42.112;24.738;2024-02-26T05:28:01;99350.44;;;11.38;72.00
9889;BME280;4983;42.112;24.738;2024-02-26T05:30:26;99365.94;;;11.26;71.31
9889;BME280;4983;42.112;24.738;2024-02-26T05:32:53;99369.25;;;11.14;71.00
9889;BME280;4983;42.112;24.738;2024-02-26T05:35:19;99362.63;;;11.03;71.25
9889;BME280;4983;42.112;24.738;2024-02-26T05:37:44;99369.00;;;10.94;72.72
9889;BME280;4983;42.112;24.738;2024-02-26T05:40:10;99372.28;;;10.82;72.28
9889;BME280;4983;42.112;24.738;2024-02-26T05:42:36;99373.38;;;10.73;71.57
9889;BME280;4983;42.112;24.738;2024-02-26T05:45:02;99370.63;;;10.66;73.08
9889;BME280;4983;42.112;24.738;2024-02-26T05:47:34;99380.19;;;10.67;72.87
9889;BME280;4983;42.112;24.738;2024-02-26T05:50:01;99367.00;;;10.67;73.14
9889;BME280;4983;42.112;24.738;2024-02-26T05:52:27;99363.53;;;10.67;73.77
9889;BME280;4983;42.112;24.738;2024-02-26T05:54:54;99367.25;;;10.72;72.62
9889;BME280;4983;42.112;24.738;2024-02-26T05:57:20;99381.66;;;10.70;74.40
9889;BME280;4983;42.112;24.738;2024-02-26T05:59:45;99380.94;;;10.76;74.70
9889;BME280;4983;42.112;24.738;2024-02-26T06:02:11;99382.22;;;10.80;72.87
9889;BME280;4983;42.112;24.738;2024-02-26T06:04:36;99390.66;;;10.75;72.88
9889;BME280;4983;42.112;24.738;2024-02-26T06:07:02;99393.75;;;10.79;74.67
9889;BME280;4983;42.112;24.738;2024-02-26T06:09:27;99396.31;;;10.87;75.00
9889;BME280;4983;42.112;24.738;2024-02-26T06:11:53;99398.03;;;10.94;74.11
9889;BME280;4983;42.112;24.738;2024-02-26T06:14:19;99403.16;;;11.10;73.37
9889;BME280;4983;42.112;24.738;2024-02-26T06:16:45;99400.06;;;11.21;74.22
9889;BME280;4983;42.112;24.738;2024-02-26T06:19:10;99399.69;;;11.24;74.85
9889;BME280;4983;42.112;24.738;2024-02-26T06:21:36;99395.13;;;11.18;73.94
9889;BME280;4983;42.112;24.738;2024-02-26T06:24:01;99403.53;;;11.22;73.25
9889;BME280;4983;42.112;24.738;2024-02-26T06:26:27;99403.97;;;11.25;73.42
9889;BME280;4983;42.112;24.738;2024-02-26T06:28:54;99403.59;;;11.28;73.87
9889;BME280;4983;42.112;24.738;2024-02-26T06:31:21;99401.97;;;11.27;73.69
9889;BME280;4983;42.112;24.738;2024-02-26T06:33:48;99416.81;;;11.28;73.60
9889;BME280;4983;42.112;24.738;2024-02-26T06:36:15;99413.16;;;11.29;72.12
9889;BME280;4983;42.112;24.738;2024-02-26T06:38:41;99413.44;;;11.34;72.99
9889;BME280;4983;42.112;24.738;2024-02-26T06:41:07;99409.97;;;11.34;72.22
9889;BME280;4983;42.112;24.738;2024-02-26T06:43:32;99416.44;;;11.31;73.28
9889;BME280;4983;42.112;24.738;2024-02-26T06:45:58;99428.66;;;11.32;72.71
9889;BME280;4983;42.112;24.738;2024-02-26T06:48:24;99423.81;;;11.36;73.43
9889;BME280;4983;42.112;24.738;2024-02-26T06:50:50;99426.38;;;11.44;72.11
9889;BME280;4983;42.112;24.738;2024-02-26T06:53:15;99424.16;;;11.47;72.66
9889;BME280;4983;42.112;24.738;2024-02-26T06:55:41;99435.03;;;11.52;73.13
9889;BME280;4983;42.112;24.738;2024-02-26T06:58:08;99436.38;;;11.48;71.85
9889;BME280;4983;42.112;24.738;2024-02-26T07:00:33;99427.09;;;11.38;73.76
9889;BME280;4983;42.112;24.738;2024-02-26T07:02:59;99438.50;;;11.38;73.11
9889;BME280;4983;42.112;24.738;2024-02-26T07:05:24;99444.25;;;11.27;74.39
9889;BME280;4983;42.112;24.738;2024-02-26T07:07:50;99434.03;;;11.10;74.83
9889;BME280;4983;42.112;24.738;2024-02-26T07:10:16;99440.50;;;11.07;74.60
9889;BME280;4983;42.112;24.738;2024-02-26T07:12:41;99442.50;;;10.91;73.63
9889;BME280;4983;42.112;24.738;2024-02-26T07:15:07;99437.41;;;10.89;74.25
9889;BME280;4983;42.112;24.738;2024-02-26T07:17:33;99433.84;;;10.97;74.98
9889;BME280;4983;42.112;24.738;2024-02-26T07:20:02;99440.88;;;11.04;74.14
9889;BME280;4983;42.112;24.738;2024-02-26T07:22:30;99441.13;;;11.09;74.49
9889;BME280;4983;42.112;24.738;2024-02-26T07:24:56;99433.13;;;11.03;73.86
9889;BME280;4983;42.112;24.738;2024-02-26T07:27:22;99441.69;;;11.05;75.07
9889;BME280;4983;42.112;24.738;2024-02-26T07:29:47;99442.13;;;11.08;75.15
9889;BME280;4983;42.112;24.738;2024-02-26T07:32:12;99443.34;;;11.20;75.66
9889;BME280;4983;42.112;24.738;2024-02-26T07:34:38;99434.66;;;11.26;74.10
9889;BME280;4983;42.112;24.738;2024-02-26T07:37:07;99436.22;;;11.35;74.97
9889;BME280;4983;42.112;24.738;2024-02-26T07:39:33;99435.03;;;11.38;73.19
9889;BME280;4983;42.112;24.738;2024-02-26T07:41:58;99441.41;;;11.43;73.26
9889;BME280;4983;42.112;24.738;2024-02-26T07:44:24;99432.75;;;11.49;72.86
9889;BME280;4983;42.112;24.738;2024-02-26T07:46:49;99434.44;;;11.57;72.07
9889;BME280;4983;42.112;24.738;2024-02-26T07:49:15;99423.41;;;11.68;72.50
9889;BME280;4983;42.112;24.738;2024-02-26T07:51:40;99420.09;;;11.80;71.88
9889;BME280;4983;42.112;24.738;2024-02-26T07:54:06;99431.00;;;11.92;71.40
9889;BME280;4983;42.112;24.738;2024-02-26T07:56:31;99423.78;;;12.00;71.47
9889;BME280;4983;42.112;24.738;2024-02-26T07:58:57;99417.59;;;11.93;70.95
9889;BME280;4983;42.112;24.738;2024-02-26T08:01:22;99417.09;;;12.04;69.46
9889;BME280;4983;42.112;24.738;2024-02-26T08:03:48;99421.84;;;12.09;70.17
9889;BME280;4983;42.112;24.738;2024-02-26T08:06:13;99425.78;;;12.19;71.68
9889;BME280;4983;42.112;24.738;2024-02-26T08:08:39;99424.81;;;12.21;70.21
9889;BME280;4983;42.112;24.738;2024-02-26T08:11:04;99430.97;;;12.28;68.75
9889;BME280;4983;42.112;24.738;2024-02-26T08:13:30;99436.50;;;12.33;69.46
9889;BME280;4983;42.112;24.738;2024-02-26T08:15:55;99431.88;;;12.35;68.74
9889;BME280;4983;42.112;24.738;2024-02-26T08:18:21;99428.19;;;12.36;69.36
9889;BME280;4983;42.112;24.738;2024-02-26T08:20:46;99428.63;;;12.39;69.57
9889;BME280;4983;42.112;24.738;2024-02-26T08:23:14;99427.03;;;12.45;68.30
9889;BME280;4983;42.112;24.738;2024-02-26T08:25:39;99423.69;;;12.57;69.07
9889;BME280;4983;42.112;24.738;2024-02-26T08:28:05;99429.28;;;12.69;69.08
9889;BME280;4983;42.112;24.738;2024-02-26T08:30:30;99424.84;;;12.76;68.27
9889;BME280;4983;42.112;24.738;2024-02-26T08:32:56;99428.63;;;12.88;68.76
9889;BME280;4983;42.112;24.738;2024-02-26T08:35:21;99427.81;;;12.94;67.71
9889;BME280;4983;42.112;24.738;2024-02-26T08:37:47;99424.38;;;12.93;67.41
9889;BME280;4983;42.112;24.738;2024-02-26T08:40:13;99431.56;;;12.99;68.05
9889;BME280;4983;42.112;24.738;2024-02-26T08:42:39;99425.06;;;13.02;67.08
9889;BME280;4983;42.112;24.738;2024-02-26T08:45:05;99421.63;;;13.08;67.13
9889;BME280;4983;42.112;24.738;2024-02-26T08:47:31;99422.94;;;13.18;67.05
9889;BME280;4983;42.112;24.738;2024-02-26T08:49:58;99415.38;;;13.22;65.95
9889;BME280;4983;42.112;24.738;2024-02-26T08:52:23;99415.38;;;13.22;66.40
9889;BME280;4983;42.112;24.738;2024-02-26T08:54:49;99419.72;;;13.29;66.38
9889;BME280;4983;42.112;24.738;2024-02-26T08:57:15;99420.38;;;13.38;65.94
9889;BME280;4983;42.112;24.738;2024-02-26T08:59:40;99416.31;;;13.42;66.26
9889;BME280;4983;42.112;24.738;2024-02-26T09:02:05;99413.47;;;13.43;65.36
9889;BME280;4983;42.112;24.738;2024-02-26T09:04:33;99417.94;;;13.43;65.97
9889;BME280;4983;42.112;24.738;2024-02-26T09:06:59;99419.75;;;13.36;65.80
9889;BME280;4983;42.112;24.738;2024-02-26T09:09:24;99415.28;;;13.43;66.32
9889;BME280;4983;42.112;24.738;2024-02-26T09:11:51;99412.47;;;13.51;65.91
9889;BME280;4983;42.112;24.738;2024-02-26T09:14:18;99420.84;;;13.54;66.72
9889;BME280;4983;42.112;24.738;2024-02-26T09:16:43;99419.44;;;13.65;65.65
9889;BME280;4983;42.112;24.738;2024-02-26T09:19:09;99409.69;;;13.65;65.68
9889;BME280;4983;42.112;24.738;2024-02-26T09:21:34;99416.63;;;13.73;64.49
9889;BME280;4983;42.112;24.738;2024-02-26T09:24:00;99409.66;;;13.59;64.45
9889;BME280;4983;42.112;24.738;2024-02-26T09:26:25;99409.69;;;13.25;66.02
9889;BME280;4983;42.112;24.738;2024-02-26T09:28:51;99406.03;;;13.26;65.87
9889;BME280;4983;42.112;24.738;2024-02-26T09:31:17;99401.75;;;13.25;66.32
9889;BME280;4983;42.112;24.738;2024-02-26T09:33:43;99411.31;;;13.26;66.37
9889;BME280;4983;42.112;24.738;2024-02-26T09:36:09;99417.19;;;13.15;67.07
9889;BME280;4983;42.112;24.738;2024-02-26T09:38:36;99416.56;;;13.13;66.70
9889;BME280;4983;42.112;24.738;2024-02-26T09:41:06;99403.19;;;13.27;65.87
9889;BME280;4983;42.112;24.738;2024-02-26T09:43:35;99401.56;;;13.33;66.02
9889;BME280;4983;42.112;24.738;2024-02-26T09:46:05;99400.56;;;13.34;66.58
9889;BME280;4983;42.112;24.738;2024-02-26T09:48:32;99396.75;;;13.49;65.26
9889;BME280;4983;42.112;24.738;2024-02-26T09:51:01;99403.31;;;13.60;65.11
9889;BME280;4983;42.112;24.738;2024-02-26T09:53:28;99402.56;;;13.72;64.79
9889;BME280;4983;42.112;24.738;2024-02-26T09:55:54;99395.44;;;13.86;64.79
9889;BME280;4983;42.112;24.738;2024-02-26T09:58:20;99394.66;;;14.05;64.22
9889;BME280;4983;42.112;24.738;2024-02-26T10:00:53;99398.19;;;14.25;62.25
9889;BME280;4983;42.112;24.738;2024-02-26T10:03:22;99394.53;;;14.39;62.44
9889;BME280;4983;42.112;24.738;2024-02-26T10:05:51;99385.94;;;14.63;62.56
9889;BME280;4983;42.112;24.738;2024-02-26T10:08:20;99372.41;;;14.84;60.93
9889;BME280;4983;42.112;24.738;2024-02-26T10:10:47;99370.94;;;14.94;61.85
9889;BME280;4983;42.112;24.738;2024-02-26T10:13:14;99367.00;;;15.17;60.28
9889;BME280;4983;42.112;24.738;2024-02-26T10:15:39;99365.34;;;15.29;59.46
9889;BME280;4983;42.112;24.738;2024-02-26T10:18:05;99360.59;;;15.44;58.17
9889;BME280;4983;42.112;24.738;2024-02-26T10:20:31;99362.38;;;15.56;58.71
9889;BME280;4983;42.112;24.738;2024-02-26T10:22:57;99350.63;;;15.70;58.25
9889;BME280;4983;42.112;24.738;2024-02-26T10:25:23;99342.38;;;15.78;55.58
9889;BME280;4983;42.112;24.738;2024-02-26T10:27:49;99338.09;;;15.77;56.91
9889;BME280;4983;42.112;24.738;2024-02-26T10:30:18;99332.72;;;15.84;54.47
9889;BME280;4983;42.112;24.738;2024-02-26T10:32:48;99345.00;;;15.85;54.46
9889;BME280;4983;42.112;24.738;2024-02-26T10:35:15;99333.13;;;15.87;55.53
9889;BME280;4983;42.112;24.738;2024-02-26T10:37:41;99336.78;;;15.93;55.99
9889;BME280;4983;42.112;24.738;2024-02-26T10:40:12;99327.09;;;15.98;55.01
9889;BME280;4983;42.112;24.738;2024-02-26T10:42:38;99320.44;;;16.14;54.88
9889;BME280;4983;42.112;24.738;2024-02-26T10:45:06;99326.28;;;16.22;53.65
9889;BME280;4983;42.112;24.738;2024-02-26T10:47:32;99317.69;;;16.20;55.87
9889;BME280;4983;42.112;24.738;2024-02-26T10:49:59;99314.97;;;16.27;53.88
9889;BME280;4983;42.112;24.738;2024-02-26T10:52:25;99311.44;;;16.33;54.35
9889;BME280;4983;42.112;24.738;2024-02-26T10:54:54;99310.53;;;16.45;53.11
9889;BME280;4983;42.112;24.738;2024-02-26T10:57:21;99309.81;;;16.56;52.64
9889;BME280;4983;42.112;24.738;2024-02-26T10:59:49;99303.16;;;16.47;54.55
9889;BME280;4983;42.112;24.738;2024-02-26T11:02:15;99308.41;;;16.54;55.38
9889;BME280;4983;42.112;24.738;2024-02-26T11:04:41;99302.81;;;16.80;53.46
9889;BME280;4983;42.112;24.738;2024-02-26T11:07:09;99288.50;;;16.92;51.45
9889;BME280;4983;42.112;24.738;2024-02-26T11:09:35;99303.94;;;16.90;51.85
9889;BME280;4983;42.112;24.738;2024-02-26T11:12:02;99291.16;;;16.92;52.40
9889;BME280;4983;42.112;24.738;2024-02-26T11:14:29;99285.09;;;17.03;50.39
9889;BME280;4983;42.112;24.738;2024-02-26T11:16:57;99289.56;;;16.91;49.89
9889;BME280;4983;42.112;24.738;2024-02-26T11:19:24;99290.28;;;16.98;50.27
9889;BME280;4983;42.112;24.738;2024-02-26T11:21:50;99281.09;;;16.94;50.37
9889;BME280;4983;42.112;24.738;2024-02-26T11:24:16;99279.94;;;16.90;50.94
9889;BME280;4983;42.112;24.738;2024-02-26T11:26:55;99282.72;;;17.13;49.60
9889;BME280;4983;42.112;24.738;2024-02-26T11:29:29;99278.41;;;17.12;49.18
9889;BME280;4983;42.112;24.738;2024-02-26T11:31:59;99270.81;;;17.27;49.66
9889;BME280;4983;42.112;24.738;2024-02-26T11:34:25;99267.81;;;17.24;48.08
9889;BME280;4983;42.112;24.738;2024-02-26T11:36:52;99263.38;;;17.18;47.67
9889;BME280;4983;42.112;24.738;2024-02-26T11:39:18;99262.09;;;17.20;46.37
9889;BME280;4983;42.112;24.738;2024-02-26T11:41:43;99268.63;;;17.06;46.13
9889;BME280;4983;42.112;24.738;2024-02-26T11:44:09;99262.50;;;16.88;47.14
9889;BME280;4983;42.112;24.738;2024-02-26T11:46:42;99254.50;;;16.70;48.16
9889;BME280;4983;42.112;24.738;2024-02-26T11:51:57;99253.41;;;16.77;48.48
9889;BME280;4983;42.112;24.738;2024-02-26T11:59:52;99242.97;;;16.76;49.57
9889;BME280;4983;42.112;24.738;2024-02-26T12:05:16;99250.53;;;16.61;49.09
9889;BME280;4983;42.112;24.738;2024-02-26T12:07:46;99247.13;;;16.72;48.51
9889;BME280;4983;42.112;24.738;2024-02-26T12:12:53;99244.97;;;16.62;49.51
9889;BME280;4983;42.112;24.738;2024-02-26T12:15:18;99237.31;;;16.66;49.42
9889;BME280;4983;42.112;24.738;2024-02-26T12:17:48;99238.59;;;16.63;49.77
9889;BME280;4983;42.112;24.738;2024-02-26T12:20:16;99227.72;;;16.65;49.77
9889;BME280;4983;42.112;24.738;2024-02-26T12:22:44;99225.66;;;16.67;49.26
9889;BME280;4983;42.112;24.738;2024-02-26T12:25:10;99231.22;;;16.95;48.35
9889;BME280;4983;42.112;24.738;2024-02-26T12:27:36;99230.63;;;17.11;48.29
9889;BME280;4983;42.112;24.738;2024-02-26T12:30:03;99226.34;;;17.21;48.27
9889;BME280;4983;42.112;24.738;2024-02-26T12:32:28;99226.13;;;17.23;48.24
9889;BME280;4983;42.112;24.738;2024-02-26T12:34:54;99226.72;;;17.43;49.15
9889;BME280;4983;42.112;24.738;2024-02-26T12:37:20;99223.47;;;17.52;46.67
9889;BME280;4983;42.112;24.738;2024-02-26T12:39:45;99236.22;;;17.50;46.92
9889;BME280;4983;42.112;24.738;2024-02-26T12:42:11;99222.66;;;17.22;48.44
9889;BME280;4983;42.112;24.738;2024-02-26T12:44:37;99214.22;;;17.07;47.83
9889;BME280;4983;42.112;24.738;2024-02-26T12:47:04;99221.00;;;17.10;48.94
9889;BME280;4983;42.112;24.738;2024-02-26T12:49:29;99213.41;;;17.25;49.55
9889;BME280;4983;42.112;24.738;2024-02-26T12:51:55;99196.16;;;17.39;49.51
9889;BME280;4983;42.112;24.738;2024-02-26T12:54:28;99217.84;;;17.72;48.34
9889;BME280;4983;42.112;24.738;2024-02-26T12:56:54;99222.03;;;17.79;47.29
9889;BME280;4983;42.112;24.738;2024-02-26T12:59:20;99207.38;;;17.70;48.34
9889;BME280;4983;42.112;24.738;2024-02-26T13:01:46;99214.56;;;17.70;46.54
9889;BME280;4983;42.112;24.738;2024-02-26T13:04:12;99221.75;;;17.58;47.05
9889;BME280;4983;42.112;24.738;2024-02-26T13:06:37;99218.41;;;17.62;46.82
9889;BME280;4983;42.112;24.738;2024-02-26T13:09:03;99203.28;;;17.56;47.39
9889;BME280;4983;42.112;24.738;2024-02-26T13:11:29;99212.59;;;17.65;46.91
9889;BME280;4983;42.112;24.738;2024-02-26T13:13:56;99213.06;;;17.62;47.31
9889;BME280;4983;42.112;24.738;2024-02-26T13:16:24;99218.28;;;17.69;47.47
9889;BME280;4983;42.112;24.738;2024-02-26T13:18:50;99218.19;;;17.64;46.87
9889;BME280;4983;42.112;24.738;2024-02-26T13:21:18;99222.88;;;17.50;46.99